KJNX

Johnston Regional Airport

Smithfield, North Carolina, USA
METAR KJNX 230040Z AUTO 00000KT 10SM CLR 08/08 A3025 RMK AO2
Observed Flight Rules
Oct-23 @ 00:40 UTC (21 minutes ago) Visual Flight Rules
Visibility Clouds
10 miles
  • Clear skies
Temperatures Readings
Current 8°C / 46°F
Dewpoint 8°C / 46°F
Humidity 100%
Altimeter 30.25" Hg
Pressure 1024 hPa
Elevation 50
METAR KJNX 230040Z AUTO 00000KT 10SM CLR 08/08 A3025 RMK AO2
Observed Flight Rules
Oct-23 @ 00:40 UTC
(21 minutes ago)
VFR
Clouds
  • Clear skies
Temperature Dewpoint
8°C / 46°F 8°C / 46°F
Humidity Altimeter Pressure
100% 30.25" Hg 1024 hPa